Time;durP1;ratioP1;P1;durP2;ratioP2;P2;SDS_P1;SDS_P2;PMS_P1;PMS_P2;Temp;Humidity;BMP_temperature;BMP_pressure;BME280_temperature;BME280_humidity;BME280_pressure;Samples;Min_cycle;Max_cycle;Signal;HPM_P1;HPM_P2
2023/10/28 01:15:31;;;;;;;2.20;2.00;;;;;;;4.33;100.00;94260.91;7398776;19;20362;-88
2023/10/28 01:22:15;;;;;;;6.03;2.47;;;;;;;5.19;100.00;94378.81;7400315;19;20341;-90
2023/10/28 01:37:09;;;;;;;2.33;1.53;;;;;;;5.96;100.00;94382.75;7396057;19;20339;-88
2023/10/28 02:04:57;;;;;;;2.03;1.33;;;;;;;4.52;100.00;94146.94;7406501;19;20360;-88
2023/10/28 02:07:25;;;;;;;1.97;1.20;;;;;;;4.36;100.00;94131.28;7399896;19;20381;-88
2023/10/28 02:09:52;;;;;;;1.90;1.27;;;;;;;5.01;100.00;94225.78;7394901;19;20528;-89
2023/10/28 02:12:19;;;;;;;2.63;1.63;;;;;;;5.37;100.00;94271.06;7395403;19;20369;-88
2023/10/28 02:14:47;;;;;;;1.60;1.10;;;;;;;4.23;100.00;94093.25;7394791;19;20415;-89
2023/10/28 02:17:20;;;;;;;1.10;0.90;;;;;;;4.10;100.00;94090.00;7395570;19;20369;-88
2023/10/28 02:19:48;;;;;;;2.70;1.13;;;;;;;4.03;100.00;94066.31;7394627;19;20416;-89
2023/10/28 02:22:15;;;;;;;3.67;1.40;;;;;;;5.12;100.00;94236.50;7413263;19;20373;-90
2023/10/28 02:24:42;;;;;;;3.20;1.47;;;;;;;4.81;100.00;94193.59;7400188;19;20388;-89
2023/10/28 02:27:11;;;;;;;1.30;1.10;;;;;;;6.16;100.00;94400.78;7396042;19;20390;-90
2023/10/28 02:29:38;;;;;;;1.40;0.80;;;;;;;4.31;100.00;94126.34;7394507;19;20399;-92
2023/10/28 02:32:06;;;;;;;3.13;1.27;;;;;;;4.06;100.00;94095.16;7394063;19;20926;-88
2023/10/28 02:34:37;;;;;;;1.10;0.90;;;;;;;4.07;100.00;94106.38;7393923;19;20707;-88
2023/10/28 02:37:11;;;;;;;1.07;0.97;;;;;;;4.30;100.00;94137.91;7394771;19;20365;-89
2023/10/28 02:39:38;;;;;;;2.00;1.17;;;;;;;4.02;100.00;94099.56;7392912;19;20417;-89
2023/10/28 02:42:05;;;;;;;1.30;1.13;;;;;;;4.17;100.00;94100.63;7393516;19;20901;-89
2023/10/28 02:44:33;;;;;;;5.53;3.30;;;;;;;5.25;100.00;94258.84;7394189;19;20393;-88
2023/10/28 02:47:00;;;;;;;2.90;1.53;;;;;;;5.14;100.00;94257.84;7394712;19;20399;-89
2023/10/28 02:49:27;;;;;;;0.90;0.90;;;;;;;5.62;100.00;94325.50;7393326;19;20408;-88
2023/10/28 02:51:58;;;;;;;1.30;1.20;;;;;;;4.83;100.00;94214.19;7394316;19;20389;-89
2023/10/28 02:54:30;;;;;;;1.30;1.10;;;;;;;4.93;100.00;94231.97;7405589;19;20372;-93
2023/10/28 02:56:57;;;;;;;2.47;1.30;;;;;;;4.93;100.00;94230.09;7427460;19;20405;-93
2023/10/28 02:59:24;;;;;;;1.00;0.90;;;;;;;4.98;100.00;94240.34;7426716;19;20412;-91
2023/10/28 03:01:51;;;;;;;2.90;0.97;;;;;;;4.06;100.00;94108.22;7427616;19;20389;-91
2023/10/28 03:04:19;;;;;;;1.20;1.10;;;;;;;4.58;100.00;94184.84;7427363;19;20455;-92
2023/10/28 03:06:47;;;;;;;1.60;1.40;;;;;;;5.46;100.00;94313.53;7427367;19;20417;-91
2023/10/28 03:09:14;;;;;;;1.10;1.00;;;;;;;4.28;100.00;94127.03;7425630;19;20389;-91
2023/10/28 03:11:41;;;;;;;1.20;1.10;;;;;;;4.25;100.00;94117.22;7403999;19;20739;-90
2023/10/28 03:14:08;;;;;;;2.13;0.90;;;;;;;5.15;100.00;94247.03;7396076;19;20400;-89
2023/10/28 03:16:36;;;;;;;2.00;1.50;;;;;;;4.42;100.00;94129.94;7393414;19;20720;-89
2023/10/28 03:19:04;;;;;;;1.53;1.20;;;;;;;4.13;100.00;94116.22;7392005;19;20757;-89
2023/10/28 03:21:33;;;;;;;1.20;1.10;;;;;;;5.19;100.00;94260.97;7393162;19;20373;-89
2023/10/28 03:24:01;;;;;;;1.27;1.17;;;;;;;4.21;100.00;94116.38;7393394;19;20381;-89
2023/10/28 03:26:33;;;;;;;1.40;1.30;;;;;;;5.49;100.00;94294.53;7392965;19;21268;-89
2023/10/28 10:28:15;;;;;;;2.10;1.40;;;;;;;6.85;100.00;94469.22;7404424;19;20413;-92
2023/10/28 10:30:51;;;;;;;2.43;1.70;;;;;;;8.37;100.00;94688.59;7404183;19;20835;-91
2023/10/28 10:33:32;;;;;;;6.07;4.60;;;;;;;7.95;100.00;94599.16;7403286;19;20392;-92
2023/10/28 10:36:01;;;;;;;4.77;3.13;;;;;;;7.20;100.00;94466.44;7401245;19;20393;-91
2023/10/28 10:38:39;;;;;;;4.07;1.67;;;;;;;8.34;100.00;94623.50;7401118;19;20384;-91
2023/10/28 10:41:30;;;;;;;3.90;1.50;;;;;;;7.21;100.00;94440.91;7401747;19;20381;-92
2023/10/28 10:44:34;;;;;;;4.40;1.63;;;;;;;9.45;100.00;94750.41;7410159;19;20423;-92
2023/10/28 10:47:06;;;;;;;2.30;1.60;;;;;;;8.07;100.00;94506.13;7401105;19;20944;-92
2023/10/28 10:49:40;;;;;;;1.80;1.10;;;;;;;7.50;100.00;94445.53;7399056;19;20424;-91
2023/10/28 10:52:12;;;;;;;1.40;1.10;;;;;;;7.58;100.00;94473.44;7408878;19;20369;-91
2023/10/28 10:54:40;;;;;;;3.70;1.50;;;;;;;7.51;100.00;94462.81;7411256;19;20376;-91
2023/10/28 10:57:12;;;;;;;1.63;1.47;;;;;;;7.46;100.00;94459.72;7423332;19;20400;-88
2023/10/28 10:59:41;;;;;;;2.63;1.27;;;;;;;7.64;100.00;94456.25;7425490;19;20437;-86
2023/10/28 11:02:10;;;;;;;2.17;1.40;;;;;;;9.37;100.00;94734.88;7428504;19;20396;-87
2023/10/28 11:04:42;;;;;;;2.43;1.00;;;;;;;7.56;100.00;94451.25;7427617;19;20389;-89
2023/10/28 11:10:40;;;;;;;5.90;1.40;;;;;;;9.66;100.00;94781.59;7433051;19;20408;-89
2023/10/28 11:13:50;;;;;;;5.73;1.17;;;;;;;8.42;100.00;94582.25;7432191;19;20405;-92
2023/10/28 11:16:34;;;;;;;2.73;1.23;;;;;;;8.17;100.00;94556.28;7422390;19;20376;-92
2023/10/28 11:19:48;;;;;;;2.83;1.17;;;;;;;9.79;100.00;94776.84;7424374;19;20440;-92
2023/10/28 11:26:06;;;;;;;2.33;1.47;;;;;;;8.65;100.00;94524.97;7408410;19;20465;-93
2023/10/28 11:28:39;;;;;;;1.53;1.10;;;;;;;9.23;100.00;94600.97;7413273;19;20434;-92
2023/10/28 11:31:18;;;;;;;1.80;1.20;;;;;;;10.53;100.00;94769.00;7414797;19;20384;-93
2023/10/28 11:33:49;;;;;;;2.00;1.10;;;;;;;9.65;100.00;94621.00;7415249;19;20384;-92
2023/10/28 11:36:24;;;;;;;3.67;1.63;;;;;;;9.40;100.00;94602.28;7408646;19;20376;-91
2023/10/28 11:39:17;;;;;;;4.80;1.20;;;;;;;8.50;100.00;94475.88;7398784;19;20439;-91
2023/10/28 11:42:12;;;;;;;2.70;1.07;;;;;;;10.15;100.00;94727.88;7399922;19;20715;-92
2023/10/28 11:44:55;;;;;;;4.07;1.40;;;;;;;9.37;100.00;94600.38;7399491;19;20935;-91
2023/10/28 11:47:32;;;;;;;6.20;2.07;;;;;;;10.53;100.00;94771.63;7399126;19;20743;-91
2023/10/28 11:50:09;;;;;;;4.70;1.90;;;;;;;9.77;100.00;94629.44;7398066;19;20405;-91
2023/10/28 11:52:41;;;;;;;3.63;1.57;;;;;;;9.44;100.00;94545.81;7399677;19;20360;-91
2023/10/28 11:55:18;;;;;;;4.53;1.70;;;;;;;9.07;100.00;94481.75;7398337;19;20443;-91
2023/10/28 11:57:57;;;;;;;4.97;1.47;;;;;;;10.21;100.00;94609.44;7400527;19;20373;-92
2023/10/28 12:00:35;;;;;;;2.73;1.60;;;;;;;9.27;100.00;94491.00;7396823;19;20422;-91
2023/10/28 12:03:20;;;;;;;2.47;1.33;;;;;;;10.00;100.00;94631.88;7399543;19;20381;-91
2023/10/28 12:06:04;;;;;;;4.60;1.60;;;;;;;10.80;100.00;94776.78;7398911;19;20400;-91
2023/10/28 12:08:52;;;;;;;3.33;1.47;;;;;;;9.65;100.00;94626.28;7398504;19;20420;-91
2023/10/28 12:11:31;;;;;;;6.67;2.10;;;;;;;10.47;100.00;94767.06;7399454;19;20390;-91
2023/10/28 12:14:16;;;;;;;5.47;1.87;;;;;;;10.30;100.00;94771.06;7398363;19;20375;-92
2023/10/28 12:17:12;;;;;;;4.13;1.50;;;;;;;10.30;100.00;94771.06;7396158;19;20385;-91
2023/10/28 12:20:14;;;;;;;4.00;2.03;;;;;;;8.65;100.00;94537.38;7392911;19;20405;-91
2023/10/28 12:23:10;;;;;;;3.70;1.33;;;;;;;8.84;100.00;94580.16;7395944;19;20397;-90
2023/10/28 12:26:20;;;;;;;;;;;;;;;;;;;;;
2023/10/28 12:32:22;;;;;;;1.67;1.20;;;;;;;8.36;100.00;94508.03;7396350;19;20451;-91
2023/10/28 12:35:03;;;;;;;2.47;1.73;;;;;;;9.00;100.00;94584.50;7396888;19;20393;-91
2023/10/28 12:37:35;;;;;;;5.63;1.50;;;;;;;8.58;100.00;94493.28;7398673;19;20397;-90
2023/10/28 12:40:04;;;;;;;3.33;1.30;;;;;;;8.98;100.00;94565.66;7396766;19;20392;-92
2023/10/28 12:42:36;;;;;;;3.10;2.03;;;;;;;8.34;100.00;94451.56;7399330;19;20385;-91
2023/10/28 12:45:04;;;;;;;3.37;1.57;;;;;;;8.79;100.00;94519.88;7398217;19;20385;-90
2023/10/28 12:47:34;;;;;;;4.50;1.63;;;;;;;10.45;100.00;94658.34;7398864;19;20392;-90
2023/10/28 12:50:03;;;;;;;3.17;1.50;;;;;;;10.07;100.00;94605.56;7396158;19;20409;-90
2023/10/28 12:52:52;;;;;;;5.63;1.70;;;;;;;9.80;100.00;94558.56;7398241;19;20705;-91
2023/10/28 12:55:59;;;;;;;3.40;1.60;;;;;;;9.97;100.00;94548.16;7397025;19;20393;-90
2023/10/28 12:58:35;;;;;;;2.30;1.67;;;;;;;9.51;100.00;94476.53;7398121;19;20373;-91
2023/10/28 13:01:35;;;;;;;2.90;1.40;;;;;;;9.15;100.00;94457.75;7397205;19;20383;-91
2023/10/28 13:04:10;;;;;;;3.77;1.70;;;;;;;8.89;100.00;94439.44;7396955;19;20907;-91
2023/10/28 13:06:59;;;;;;;8.03;2.20;;;;;;;10.96;100.00;94782.59;7397744;19;20360;-91
2023/10/28 14:55:10;;;;;;;7.30;3.27;;;;;;;9.16;100.00;94620.09;7404920;19;20405;-92
2023/10/28 14:57:47;;;;;;;6.10;3.00;;;;;;;7.87;100.00;94443.06;7407933;19;20369;-92
2023/10/28 15:00:35;;;;;;;4.10;3.17;;;;;;;9.00;100.00;94626.66;7404132;19;20460;-92
2023/10/28 15:03:16;;;;;;;4.90;4.00;;;;;;;7.91;100.00;94472.81;7416557;19;20426;-91
2023/10/28 15:05:51;;;;;;;3.63;3.23;;;;;;;7.90;100.00;94481.06;7401498;19;20377;-92
2023/10/28 15:11:24;;;;;;;7.53;3.07;;;;;;;9.03;100.00;94642.53;7401724;19;20921;-91
2023/10/28 15:13:56;;;;;;;3.70;3.13;;;;;;;7.78;100.00;94468.13;7398980;19;20385;-93
2023/10/28 15:16:45;;;;;;;3.27;2.97;;;;;;;9.21;100.00;94719.19;7397502;19;20401;-92
2023/10/28 15:19:19;;;;;;;5.17;2.90;;;;;;;7.33;100.00;94454.63;7400414;19;20416;-92
2023/10/28 15:22:11;;;;;;;7.37;4.07;;;;;;;8.18;100.00;94602.53;7399990;19;20384;-92
2023/10/28 15:24:53;;;;;;;8.50;5.13;;;;;;;7.42;100.00;94483.31;7401173;19;20452;-93
2023/10/28 15:27:32;;;;;;;9.27;7.20;;;;;;;7.99;100.00;94582.31;7402076;19;20385;-92
2023/10/28 15:34:15;;;;;;;9.30;6.10;;;;;;;9.71;100.00;94807.66;7399917;19;20331;-91
2023/10/28 15:36:45;;;;;;;6.90;4.83;;;;;;;9.38;100.00;94760.88;7394870;19;20373;-90
2023/10/28 15:39:12;;;;;;;6.00;4.70;;;;;;;9.11;100.00;94735.66;7392788;19;20408;-91
2023/10/28 15:41:43;;;;;;;7.83;3.80;;;;;;;8.72;100.00;94711.34;7394010;19;20360;-91
2023/10/28 15:44:10;;;;;;;8.03;4.40;;;;;;;8.42;100.00;94696.22;7393124;19;20383;-91
2023/10/28 15:46:37;;;;;;;4.00;2.60;;;;;;;7.93;100.00;94640.84;7395505;19;20392;-91
2023/10/28 15:57:52;;;;;;;13.43;4.40;;;;;;;6.48;100.00;94493.25;7396369;19;20697;-91
2023/10/28 18:33:03;;;;;;;4.33;2.97;;;;;;;7.35;100.00;94825.72;7395397;19;20375;-89
2023/10/28 18:35:30;;;;;;;5.10;2.80;;;;;;;6.84;100.00;94753.22;7397122;19;20393;-89
2023/10/28 18:38:16;;;;;;;10.40;3.70;;;;;;;6.17;100.00;94648.16;7401342;19;20394;-90
2023/10/28 18:40:44;;;;;;;10.33;3.70;;;;;;;6.23;100.00;94678.28;7398967;19;20400;-90
2023/10/28 18:43:12;;;;;;;5.13;2.90;;;;;;;5.08;100.00;94513.25;7402282;19;20389;-89
2023/10/28 18:45:39;;;;;;;6.20;3.30;;;;;;;5.47;100.00;94556.91;7398432;19;20376;-89
2023/10/28 18:57:13;;;;;;;6.57;3.87;;;;;;;7.17;100.00;94863.94;7395092;19;20347;-90
2023/10/28 19:00:14;;;;;;;7.93;3.17;;;;;;;5.80;100.00;94656.22;7394097;19;20418;-90
2023/10/28 19:03:10;;;;;;;15.73;4.43;;;;;;;6.02;100.00;94678.53;7395397;19;20401;-92
2023/10/28 19:05:39;;;;;;;5.40;4.90;;;;;;;6.08;100.00;94676.41;7396219;19;20393;-89
2023/10/28 19:08:07;;;;;;;6.80;4.40;;;;;;;6.59;100.00;94761.28;7398339;19;20369;-90
2023/10/28 19:10:38;;;;;;;7.70;4.80;;;;;;;5.14;100.00;94559.06;7392762;19;20416;-89
2023/10/28 19:34:15;;;;;;;4.70;3.40;;;;;;;6.58;100.00;94751.13;7405090;19;20416;-90
2023/10/28 19:40:18;;;;;;;6.03;3.47;;;;;;;5.14;100.00;94532.84;7400765;19;20941;-90
2023/10/28 19:43:06;;;;;;;4.83;4.43;;;;;;;6.59;100.00;94763.13;7399919;19;20395;-89
2023/10/28 19:45:33;;;;;;;5.67;3.40;;;;;;;6.93;100.00;94820.22;7404902;19;20387;-90
2023/10/28 19:48:00;;;;;;;4.20;3.63;;;;;;;7.18;100.00;94862.84;7401899;19;20373;-90
2023/10/28 19:50:27;;;;;;;6.97;4.20;;;;;;;5.55;100.00;94615.50;7399251;19;20415;-91
2023/10/28 19:52:54;;;;;;;4.57;3.30;;;;;;;6.72;100.00;94785.59;7400202;19;20380;-90
2023/10/28 19:55:22;;;;;;;7.17;4.10;;;;;;;5.37;100.00;94582.84;7400119;19;20448;-90
2023/10/28 19:57:49;;;;;;;7.93;3.30;;;;;;;5.64;100.00;94632.59;7400666;19;20404;-90
2023/10/28 20:00:18;;;;;;;6.47;3.23;;;;;;;5.09;100.00;94554.06;7398100;19;20416;-90
2023/10/28 20:02:45;;;;;;;6.10;3.87;;;;;;;6.03;100.00;94702.91;7411375;19;20388;-90
2023/10/28 20:05:15;;;;;;;6.30;4.17;;;;;;;5.18;100.00;94578.22;7434650;19;20384;-90
2023/10/28 20:13:44;;;;;;;5.97;4.13;;;;;;;5.61;100.00;94661.34;7401081;19;20467;-90
2023/10/28 20:16:14;;;;;;;8.50;4.90;;;;;;;5.74;100.00;94681.16;7398586;19;20393;-91
2023/10/28 20:23:47;;;;;;;;;;;;;;;;;;;;;
2023/10/28 20:34:38;;;;;;;9.23;4.00;;;;;;;6.79;100.00;94843.53;7409846;19;20387;-91
2023/10/28 20:40:33;;;;;;;6.00;3.90;;;;;;;6.60;100.00;94815.31;7403007;19;20932;-91
2023/10/28 20:43:28;;;;;;;4.43;3.97;;;;;;;4.81;100.00;94554.81;7405006;19;20385;-91
2023/10/28 20:46:02;;;;;;;5.87;3.80;;;;;;;5.32;100.00;94617.91;7417609;19;20373;-91
2023/10/28 20:48:34;;;;;;;8.63;4.50;;;;;;;4.82;100.00;94547.72;7400869;19;20393;-91
2023/10/28 20:54:56;;;;;;;5.07;4.10;;;;;;;4.79;100.00;94543.91;7402072;19;20392;-91
2023/10/28 21:05:40;;;;;;;7.33;3.97;;;;;;;6.72;100.00;94857.25;7403072;19;20368;-88
2023/10/28 21:09:32;;;;;;;;;;;;;;;;;;;;;
2023/10/28 22:29:24;;;;;;;8.80;5.70;;;;;;;5.24;100.00;94629.31;7397658;19;20174;-89
2023/10/28 22:31:51;;;;;;;7.23;4.30;;;;;;;5.28;100.00;94627.53;7407198;19;20388;-90
2023/10/28 22:34:19;;;;;;;5.40;4.50;;;;;;;6.03;100.00;94750.88;7400170;19;20405;-89
2023/10/28 22:36:59;;;;;;;5.63;5.00;;;;;;;5.46;100.00;94668.06;7399272;19;20357;-89
2023/10/28 22:42:47;;;;;;;6.47;4.47;;;;;;;4.56;100.00;94538.44;7399478;19;20871;-89
2023/10/28 22:45:26;;;;;;;4.23;3.60;;;;;;;4.38;100.00;94518.84;7399148;19;20383;-89
2023/10/28 22:48:10;;;;;;;5.27;4.63;;;;;;;4.37;100.00;94515.47;7400689;19;20380;-89
2023/10/28 22:51:06;;;;;;;7.23;4.63;;;;;;;5.83;100.00;94725.59;7399615;19;20425;-90
2023/10/28 22:53:35;;;;;;;7.13;4.33;;;;;;;4.69;100.00;94560.84;7399766;19;20470;-90
2023/10/28 22:56:03;;;;;;;5.43;4.40;;;;;;;6.26;100.00;94797.53;7397009;19;20399;-90
2023/10/28 22:58:30;;;;;;;5.63;3.90;;;;;;;5.68;100.00;94700.84;7397217;19;20438;-90
2023/10/28 23:01:01;;;;;;;5.93;4.17;;;;;;;4.32;100.00;94500.00;7397724;19;20379;-90
2023/10/28 23:03:29;;;;;;;6.20;3.67;;;;;;;5.53;100.00;94697.09;7400570;19;20395;-90
2023/10/28 23:05:57;;;;;;;7.13;4.47;;;;;;;4.95;100.00;94604.97;7398748;19;20379;-90
2023/10/28 23:12:31;;;;;;;4.57;4.00;;;;;;;6.55;100.00;94815.56;7396444;19;20387;-90
2023/10/28 23:22:22;;;;;;;5.43;4.00;;;;;;;5.41;100.00;94628.25;7395932;19;20377;-90
2023/10/28 23:24:57;;;;;;;5.23;4.20;;;;;;;5.03;100.00;94582.34;7403835;19;20376;-90
2023/10/28 23:27:30;;;;;;;6.40;4.30;;;;;;;4.49;100.00;94485.13;7396783;19;20368;-90
2023/10/28 23:30:32;;;;;;;8.90;4.40;;;;;;;4.91;100.00;94564.03;7399063;19;20399;-89
2023/10/28 23:37:39;;;;;;;4.77;3.40;;;;;;;4.94;100.00;94579.09;7397293;19;20358;-91
2023/10/28 23:40:55;;;;;;;7.43;4.17;;;;;;;5.33;100.00;94633.28;7394365;19;20428;-91
2023/10/28 23:43:28;;;;;;;4.10;3.70;;;;;;;4.43;100.00;94492.47;7396813;19;20401;-91
2023/10/28 23:46:13;;;;;;;4.23;3.83;;;;;;;5.75;100.00;94702.91;7396821;19;20393;-90
2023/10/28 23:48:45;;;;;;;6.07;3.77;;;;;;;6.07;100.00;94753.59;7408585;19;20408;-92
2023/10/28 23:51:51;;;;;;;8.30;3.57;;;;;;;6.49;100.00;94801.91;7405374;19;20432;-90
2023/10/28 23:54:21;;;;;;;5.03;3.03;;;;;;;6.53;100.00;94809.88;7395736;19;20399;-90
